sensor_id;sensor_type;location;lat;lon;timestamp;pressure;altitude;pressure_sealevel;temperature;humidity
75617;BME280;64200;55.426;37.758;2023-04-09T00:00:20;100292.84;;;8.24;46.81
75617;BME280;64200;55.426;37.758;2023-04-09T00:05:21;100295.81;;;8.34;46.39
75617;BME280;64200;55.426;37.758;2023-04-09T00:10:21;100300.06;;;8.38;46.43
75617;BME280;64200;55.426;37.758;2023-04-09T00:15:22;100292.41;;;8.26;46.56
75617;BME280;64200;55.426;37.758;2023-04-09T00:20:22;100298.78;;;8.10;47.09
75617;BME280;64200;55.426;37.758;2023-04-09T00:25:23;100297.97;;;7.93;47.81
75617;BME280;64200;55.426;37.758;2023-04-09T00:30:24;100297.63;;;8.07;47.72
75617;BME280;64200;55.426;37.758;2023-04-09T00:35:25;100300.59;;;8.17;47.09
75617;BME280;64200;55.426;37.758;2023-04-09T00:40:26;100298.13;;;8.02;47.47
75617;BME280;64200;55.426;37.758;2023-04-09T00:45:27;100298.06;;;7.89;48.47
75617;BME280;64200;55.426;37.758;2023-04-09T00:50:27;100293.63;;;7.92;48.06
75617;BME280;64200;55.426;37.758;2023-04-09T00:55:29;100300.41;;;7.91;48.32
75617;BME280;64200;55.426;37.758;2023-04-09T01:00:30;100299.63;;;7.90;48.43
75617;BME280;64200;55.426;37.758;2023-04-09T01:10:53;100295.00;;;7.47;49.44
75617;BME280;64200;55.426;37.758;2023-04-09T01:15:59;100296.47;;;7.52;49.27
75617;BME280;64200;55.426;37.758;2023-04-09T01:21:18;100299.63;;;7.54;49.54
75617;BME280;64200;55.426;37.758;2023-04-09T01:32:16;100300.34;;;7.38;49.64
75617;BME280;64200;55.426;37.758;2023-04-09T01:37:18;100307.94;;;7.34;50.52
75617;BME280;64200;55.426;37.758;2023-04-09T01:42:19;100296.41;;;7.35;49.96
75617;BME280;64200;55.426;37.758;2023-04-09T01:47:21;100310.31;;;7.35;50.12
75617;BME280;64200;55.426;37.758;2023-04-09T01:52:22;100294.88;;;7.34;50.08
75617;BME280;64200;55.426;37.758;2023-04-09T01:57:22;100292.81;;;7.18;50.45
75617;BME280;64200;55.426;37.758;2023-04-09T02:02:28;100297.56;;;6.98;51.82
75617;BME280;64200;55.426;37.758;2023-04-09T02:07:37;100298.16;;;7.09;51.37
75617;BME280;64200;55.426;37.758;2023-04-09T02:12:44;100290.19;;;7.11;51.90
75617;BME280;64200;55.426;37.758;2023-04-09T02:17:46;100287.66;;;6.97;52.55
75617;BME280;64200;55.426;37.758;2023-04-09T02:22:47;100288.25;;;7.08;51.72
75617;BME280;64200;55.426;37.758;2023-04-09T02:27:48;100290.03;;;7.18;51.57
75617;BME280;64200;55.426;37.758;2023-04-09T02:32:48;100289.03;;;7.29;51.18
75617;BME280;64200;55.426;37.758;2023-04-09T02:37:49;100292.25;;;7.27;51.08
75617;BME280;64200;55.426;37.758;2023-04-09T02:42:51;100290.81;;;7.39;50.98
75617;BME280;64200;55.426;37.758;2023-04-09T02:47:52;100295.66;;;7.35;51.34
75617;BME280;64200;55.426;37.758;2023-04-09T02:52:52;100295.38;;;7.29;51.12
75617;BME280;64200;55.426;37.758;2023-04-09T02:57:53;100294.44;;;7.36;50.99
75617;BME280;64200;55.426;37.758;2023-04-09T03:02:53;100297.72;;;7.51;50.59
75617;BME280;64200;55.426;37.758;2023-04-09T03:07:54;100302.34;;;7.37;51.52
75617;BME280;64200;55.426;37.758;2023-04-09T03:12:55;100297.91;;;7.40;50.76
75617;BME280;64200;55.426;37.758;2023-04-09T03:17:57;100303.81;;;7.22;51.65
75617;BME280;64200;55.426;37.758;2023-04-09T03:22:57;100306.13;;;7.27;51.86
75617;BME280;64200;55.426;37.758;2023-04-09T03:27:58;100295.03;;;7.27;51.56
75617;BME280;64200;55.426;37.758;2023-04-09T03:32:58;100309.09;;;7.36;51.39
75617;BME280;64200;55.426;37.758;2023-04-09T03:37:59;100306.22;;;7.40;51.62
75617;BME280;64200;55.426;37.758;2023-04-09T03:42:59;100310.91;;;7.63;51.10
75617;BME280;64200;55.426;37.758;2023-04-09T03:48:00;100316.78;;;7.85;50.62
75617;BME280;64200;55.426;37.758;2023-04-09T03:53:00;100317.66;;;7.82;50.73
75617;BME280;64200;55.426;37.758;2023-04-09T03:58:01;100318.41;;;7.83;50.78
75617;BME280;64200;55.426;37.758;2023-04-09T04:03:01;100307.75;;;7.81;50.75
75617;BME280;64200;55.426;37.758;2023-04-09T04:08:02;100308.38;;;7.89;50.92
75617;BME280;64200;55.426;37.758;2023-04-09T04:13:03;100313.31;;;7.98;50.70
75617;BME280;64200;55.426;37.758;2023-04-09T04:18:05;100302.50;;;8.03;50.50
75617;BME280;64200;55.426;37.758;2023-04-09T04:23:05;100300.84;;;8.06;50.63
75617;BME280;64200;55.426;37.758;2023-04-09T04:28:06;100308.31;;;7.93;51.07
75617;BME280;64200;55.426;37.758;2023-04-09T04:33:07;100306.84;;;8.21;50.66
75617;BME280;64200;55.426;37.758;2023-04-09T04:38:08;100297.31;;;8.22;50.43
75617;BME280;64200;55.426;37.758;2023-04-09T04:43:09;100303.72;;;8.35;50.49
75617;BME280;64200;55.426;37.758;2023-04-09T04:48:09;100312.97;;;8.49;50.39
75617;BME280;64200;55.426;37.758;2023-04-09T04:53:10;100303.97;;;8.74;50.10
75617;BME280;64200;55.426;37.758;2023-04-09T04:58:10;100311.50;;;9.19;49.53
75617;BME280;64200;55.426;37.758;2023-04-09T05:03:12;100305.66;;;9.43;48.33
75617;BME280;64200;55.426;37.758;2023-04-09T05:08:13;100312.06;;;9.69;48.10
75617;BME280;64200;55.426;37.758;2023-04-09T05:13:13;100320.03;;;9.96;47.93
75617;BME280;64200;55.426;37.758;2023-04-09T05:18:14;100320.91;;;10.06;47.65
75617;BME280;64200;55.426;37.758;2023-04-09T05:23:14;100324.78;;;10.47;47.06
75617;BME280;64200;55.426;37.758;2023-04-09T05:28:16;100321.34;;;10.91;46.74
75617;BME280;64200;55.426;37.758;2023-04-09T05:33:17;100325.88;;;10.98;45.88
75617;BME280;64200;55.426;37.758;2023-04-09T05:38:17;100322.56;;;10.90;46.16
75617;BME280;64200;55.426;37.758;2023-04-09T05:43:17;100327.94;;;11.19;45.75
75617;BME280;64200;55.426;37.758;2023-04-09T05:48:18;100325.25;;;11.16;45.13
75617;BME280;64200;55.426;37.758;2023-04-09T05:53:20;100328.06;;;11.38;45.21
75617;BME280;64200;55.426;37.758;2023-04-09T05:58:21;100342.03;;;11.38;45.39
75617;BME280;64200;55.426;37.758;2023-04-09T06:03:22;100337.09;;;11.42;45.04
75617;BME280;64200;55.426;37.758;2023-04-09T06:08:22;100335.59;;;11.50;44.90
75617;BME280;64200;55.426;37.758;2023-04-09T06:13:23;100337.75;;;11.24;44.52
75617;BME280;64200;55.426;37.758;2023-04-09T06:18:23;100344.44;;;11.27;44.38
75617;BME280;64200;55.426;37.758;2023-04-09T06:23:24;100346.53;;;11.89;44.93
75617;BME280;64200;55.426;37.758;2023-04-09T06:28:25;100348.53;;;12.79;43.73
75617;BME280;64200;55.426;37.758;2023-04-09T06:33:25;100354.50;;;13.46;41.02
75617;BME280;64200;55.426;37.758;2023-04-09T06:38:26;100353.88;;;13.32;40.20
75617;BME280;64200;55.426;37.758;2023-04-09T06:43:26;100347.97;;;13.49;40.18
75617;BME280;64200;55.426;37.758;2023-04-09T06:48:27;100349.97;;;13.48;40.77
75617;BME280;64200;55.426;37.758;2023-04-09T06:53:27;100346.53;;;13.63;40.37
75617;BME280;64200;55.426;37.758;2023-04-09T06:58:28;100367.34;;;14.32;40.27
75617;BME280;64200;55.426;37.758;2023-04-09T07:03:28;100366.81;;;14.77;37.90
75617;BME280;64200;55.426;37.758;2023-04-09T07:08:29;100374.91;;;15.23;36.50
75617;BME280;64200;55.426;37.758;2023-04-09T07:13:29;100368.78;;;15.24;35.69
75617;BME280;64200;55.426;37.758;2023-04-09T07:18:32;100379.22;;;16.38;36.12
75617;BME280;64200;55.426;37.758;2023-04-09T07:23:35;100374.91;;;16.78;31.92
75617;BME280;64200;55.426;37.758;2023-04-09T07:28:36;100377.31;;;16.85;32.30
75617;BME280;64200;55.426;37.758;2023-04-09T07:33:36;100370.88;;;16.84;31.99
75617;BME280;64200;55.426;37.758;2023-04-09T07:38:37;100388.66;;;16.20;31.27
75617;BME280;64200;55.426;37.758;2023-04-09T07:43:38;100376.38;;;16.02;32.16
75617;BME280;64200;55.426;37.758;2023-04-09T07:48:38;100392.00;;;16.54;31.08
75617;BME280;64200;55.426;37.758;2023-04-09T07:53:39;100380.72;;;17.83;30.44
75617;BME280;64200;55.426;37.758;2023-04-09T07:58:39;100368.63;;;17.77;29.04
75617;BME280;64200;55.426;37.758;2023-04-09T08:03:40;100374.44;;;19.23;27.83
75617;BME280;64200;55.426;37.758;2023-04-09T08:08:42;100379.44;;;19.74;27.33
75617;BME280;64200;55.426;37.758;2023-04-09T08:13:43;100367.63;;;21.66;25.71
75617;BME280;64200;55.426;37.758;2023-04-09T08:18:43;100379.53;;;24.27;22.52
75617;BME280;64200;55.426;37.758;2023-04-09T08:23:46;100368.84;;;24.14;20.73
75617;BME280;64200;55.426;37.758;2023-04-09T08:28:47;100358.84;;;21.17;23.38
75617;BME280;64200;55.426;37.758;2023-04-09T08:33:48;100360.19;;;18.52;25.84
75617;BME280;64200;55.426;37.758;2023-04-09T08:38:48;100347.88;;;18.55;26.53
75617;BME280;64200;55.426;37.758;2023-04-09T08:43:50;100365.66;;;19.16;26.41
75617;BME280;64200;55.426;37.758;2023-04-09T08:48:52;100366.56;;;19.73;25.72
75617;BME280;64200;55.426;37.758;2023-04-09T08:54:00;100349.38;;;21.03;25.23
75617;BME280;64200;55.426;37.758;2023-04-09T08:59:00;100374.97;;;21.86;22.55
75617;BME280;64200;55.426;37.758;2023-04-09T09:04:06;100356.53;;;21.15;23.26
75617;BME280;64200;55.426;37.758;2023-04-09T09:14:12;100355.56;;;22.95;22.64
75617;BME280;64200;55.426;37.758;2023-04-09T09:24:25;100346.84;;;23.31;21.71
75617;BME280;64200;55.426;37.758;2023-04-09T09:29:26;100356.31;;;21.91;20.87
75617;BME280;64200;55.426;37.758;2023-04-09T09:34:27;100356.28;;;20.26;22.60
75617;BME280;64200;55.426;37.758;2023-04-09T09:39:42;100333.13;;;19.88;22.93
75617;BME280;64200;55.426;37.758;2023-04-09T09:44:43;100342.94;;;19.93;23.58
75617;BME280;64200;55.426;37.758;2023-04-09T09:49:44;100332.63;;;19.84;23.39
75617;BME280;64200;55.426;37.758;2023-04-09T09:54:47;100336.44;;;18.70;24.48
75617;BME280;64200;55.426;37.758;2023-04-09T10:00:01;100337.25;;;18.38;24.54
75617;BME280;64200;55.426;37.758;2023-04-09T10:05:04;100323.44;;;19.01;24.69
75617;BME280;64200;55.426;37.758;2023-04-09T10:10:06;100329.91;;;19.12;23.93
75617;BME280;64200;55.426;37.758;2023-04-09T10:15:08;100326.13;;;18.67;24.44
75617;BME280;64200;55.426;37.758;2023-04-09T10:25:28;100322.22;;;20.54;23.40
75617;BME280;64200;55.426;37.758;2023-04-09T10:30:32;100338.81;;;24.00;24.10
75617;BME280;64200;55.426;37.758;2023-04-09T10:35:32;100341.19;;;29.98;16.19
75617;BME280;64200;55.426;37.758;2023-04-09T10:40:33;100344.44;;;32.16;16.84
75617;BME280;64200;55.426;37.758;2023-04-09T10:45:41;100344.06;;;34.75;12.47
75617;BME280;64200;55.426;37.758;2023-04-09T10:50:43;100341.84;;;35.87;12.29
75617;BME280;64200;55.426;37.758;2023-04-09T10:55:48;100321.13;;;29.24;12.16
75617;BME280;64200;55.426;37.758;2023-04-09T11:00:50;100325.00;;;28.48;13.83
75617;BME280;64200;55.426;37.758;2023-04-09T11:05:54;100330.78;;;34.38;12.01
75617;BME280;64200;55.426;37.758;2023-04-09T11:10:57;100320.91;;;33.28;10.96
75617;BME280;64200;55.426;37.758;2023-04-09T11:15:58;100329.78;;;34.24;10.73
75617;BME280;64200;55.426;37.758;2023-04-09T11:21:01;100332.81;;;35.36;10.85
75617;BME280;64200;55.426;37.758;2023-04-09T11:26:03;100309.84;;;30.62;10.58
75617;BME280;64200;55.426;37.758;2023-04-09T11:31:04;100297.50;;;26.92;13.05
75617;BME280;64200;55.426;37.758;2023-04-09T11:36:06;100305.25;;;25.00;16.17
75617;BME280;64200;55.426;37.758;2023-04-09T11:41:06;100297.09;;;25.94;14.86
75617;BME280;64200;55.426;37.758;2023-04-09T11:46:12;100287.50;;;22.34;17.38
75617;BME280;64200;55.426;37.758;2023-04-09T11:51:13;100279.38;;;22.19;18.86
75617;BME280;64200;55.426;37.758;2023-04-09T11:56:13;100292.66;;;29.11;16.44
75617;BME280;64200;55.426;37.758;2023-04-09T12:01:15;100293.97;;;33.25;12.75
75617;BME280;64200;55.426;37.758;2023-04-09T12:06:19;100296.75;;;34.17;10.51
75617;BME280;64200;55.426;37.758;2023-04-09T12:11:27;100285.91;;;35.87;11.10
75617;BME280;64200;55.426;37.758;2023-04-09T12:16:34;100282.53;;;36.78;9.62
75617;BME280;64200;55.426;37.758;2023-04-09T12:21:48;100274.91;;;35.38;9.29
75617;BME280;64200;55.426;37.758;2023-04-09T12:26:49;100279.66;;;35.10;8.55
75617;BME280;64200;55.426;37.758;2023-04-09T12:31:50;100276.06;;;34.54;9.43
75617;BME280;64200;55.426;37.758;2023-04-09T12:36:52;100269.56;;;32.48;10.52
75617;BME280;64200;55.426;37.758;2023-04-09T12:41:53;100259.75;;;31.94;10.51
75617;BME280;64200;55.426;37.758;2023-04-09T12:46:53;100248.41;;;25.86;13.17
75617;BME280;64200;55.426;37.758;2023-04-09T12:52:15;100238.56;;;23.37;14.49
75617;BME280;64200;55.426;37.758;2023-04-09T12:57:15;100230.94;;;22.74;16.11
75617;BME280;64200;55.426;37.758;2023-04-09T13:02:16;100233.34;;;21.71;16.91
75617;BME280;64200;55.426;37.758;2023-04-09T13:07:23;100243.69;;;21.02;17.60
75617;BME280;64200;55.426;37.758;2023-04-09T13:12:45;100228.13;;;19.86;18.82
75617;BME280;64200;55.426;37.758;2023-04-09T13:18:05;100229.69;;;19.25;20.33
75617;BME280;64200;55.426;37.758;2023-04-09T13:23:11;100244.97;;;18.67;20.86
75617;BME280;64200;55.426;37.758;2023-04-09T13:28:15;100231.97;;;18.98;21.10
75617;BME280;64200;55.426;37.758;2023-04-09T13:33:36;100242.25;;;19.12;21.33
75617;BME280;64200;55.426;37.758;2023-04-09T13:38:42;100231.97;;;18.98;21.23
75617;BME280;64200;55.426;37.758;2023-04-09T13:44:01;100230.16;;;19.01;21.16
75617;BME280;64200;55.426;37.758;2023-04-09T13:49:20;100219.63;;;18.95;21.33
75617;BME280;64200;55.426;37.758;2023-04-09T13:54:39;100225.50;;;18.86;20.98
75617;BME280;64200;55.426;37.758;2023-04-09T13:59:58;100213.91;;;18.84;21.24
75617;BME280;64200;55.426;37.758;2023-04-09T14:05:03;100227.22;;;18.72;21.23
75617;BME280;64200;55.426;37.758;2023-04-09T14:10:04;100214.84;;;18.53;21.24
75617;BME280;64200;55.426;37.758;2023-04-09T14:15:05;100210.44;;;18.40;21.62
75617;BME280;64200;55.426;37.758;2023-04-09T14:20:06;100203.34;;;18.02;21.85
75617;BME280;64200;55.426;37.758;2023-04-09T14:25:07;100195.19;;;17.78;21.95
75617;BME280;64200;55.426;37.758;2023-04-09T14:30:08;100199.59;;;17.47;22.76
75617;BME280;64200;55.426;37.758;2023-04-09T14:35:09;100198.47;;;17.33;22.73
75617;BME280;64200;55.426;37.758;2023-04-09T14:40:10;100196.09;;;17.26;23.50
75617;BME280;64200;55.426;37.758;2023-04-09T14:45:10;100207.66;;;17.01;23.68
75617;BME280;64200;55.426;37.758;2023-04-09T14:50:11;100201.06;;;16.84;23.76
75617;BME280;64200;55.426;37.758;2023-04-09T14:55:12;100200.34;;;16.63;24.02
75617;BME280;64200;55.426;37.758;2023-04-09T15:00:13;100194.72;;;16.42;24.32
75617;BME280;64200;55.426;37.758;2023-04-09T15:05:13;100198.53;;;16.39;24.50
75617;BME280;64200;55.426;37.758;2023-04-09T15:10:14;100186.00;;;16.20;24.58
75617;BME280;64200;55.426;37.758;2023-04-09T15:15:14;100191.06;;;16.15;24.67
75617;BME280;64200;55.426;37.758;2023-04-09T15:20:15;100197.16;;;15.93;25.35
75617;BME280;64200;55.426;37.758;2023-04-09T15:25:16;100197.97;;;15.79;25.79
75617;BME280;64200;55.426;37.758;2023-04-09T15:30:16;100189.13;;;15.36;26.22
75617;BME280;64200;55.426;37.758;2023-04-09T15:35:17;100174.09;;;15.24;26.29
75617;BME280;64200;55.426;37.758;2023-04-09T15:40:23;100187.03;;;15.51;26.73
75617;BME280;64200;55.426;37.758;2023-04-09T15:45:24;100187.59;;;15.70;26.38
75617;BME280;64200;55.426;37.758;2023-04-09T15:50:25;100195.75;;;15.83;26.52
75617;BME280;64200;55.426;37.758;2023-04-09T15:55:25;100185.81;;;15.88;26.74
75617;BME280;64200;55.426;37.758;2023-04-09T16:00:26;100190.88;;;15.84;27.19
75617;BME280;64200;55.426;37.758;2023-04-09T16:05:27;100190.97;;;15.74;26.73
75617;BME280;64200;55.426;37.758;2023-04-09T16:10:28;100177.72;;;15.60;27.28
75617;BME280;64200;55.426;37.758;2023-04-09T16:15:28;100180.94;;;15.53;27.49
75617;BME280;64200;55.426;37.758;2023-04-09T16:20:29;100182.72;;;15.50;27.85
75617;BME280;64200;55.426;37.758;2023-04-09T16:25:30;100189.09;;;15.51;28.14
75617;BME280;64200;55.426;37.758;2023-04-09T16:30:30;100186.19;;;15.45;27.93
75617;BME280;64200;55.426;37.758;2023-04-09T16:35:31;100190.06;;;15.48;27.71
75617;BME280;64200;55.426;37.758;2023-04-09T16:40:32;100189.97;;;15.42;28.22
75617;BME280;64200;55.426;37.758;2023-04-09T16:45:32;100186.59;;;15.38;28.23
75617;BME280;64200;55.426;37.758;2023-04-09T16:50:33;100193.78;;;15.24;28.62
75617;BME280;64200;55.426;37.758;2023-04-09T16:55:34;100193.88;;;15.00;28.79
75617;BME280;64200;55.426;37.758;2023-04-09T17:00:34;100204.31;;;14.69;28.72
75617;BME280;64200;55.426;37.758;2023-04-09T17:05:35;100208.63;;;14.31;29.59
75617;BME280;64200;55.426;37.758;2023-04-09T17:10:36;100200.50;;;14.09;29.41
75617;BME280;64200;55.426;37.758;2023-04-09T17:15:36;100204.44;;;14.02;29.76
75617;BME280;64200;55.426;37.758;2023-04-09T17:20:37;100207.41;;;13.99;29.38
75617;BME280;64200;55.426;37.758;2023-04-09T17:25:37;100208.22;;;13.66;30.56
75617;BME280;64200;55.426;37.758;2023-04-09T17:30:38;100210.63;;;13.49;30.10
75617;BME280;64200;55.426;37.758;2023-04-09T17:35:40;100204.63;;;13.13;31.22
75617;BME280;64200;55.426;37.758;2023-04-09T17:40:41;100202.97;;;12.88;32.21
75617;BME280;64200;55.426;37.758;2023-04-09T17:45:41;100211.50;;;13.03;31.43
75617;BME280;64200;55.426;37.758;2023-04-09T17:50:42;100208.72;;;12.94;31.70
75617;BME280;64200;55.426;37.758;2023-04-09T17:55:49;100215.56;;;12.83;32.38
75617;BME280;64200;55.426;37.758;2023-04-09T18:00:51;100212.00;;;12.64;32.50
75617;BME280;64200;55.426;37.758;2023-04-09T18:05:53;100218.69;;;12.58;32.44
75617;BME280;64200;55.426;37.758;2023-04-09T18:10:53;100213.09;;;12.48;32.80
75617;BME280;64200;55.426;37.758;2023-04-09T18:15:55;100214.78;;;12.27;32.81
75617;BME280;64200;55.426;37.758;2023-04-09T18:20:55;100203.41;;;12.12;32.88
75617;BME280;64200;55.426;37.758;2023-04-09T18:25:56;100204.06;;;11.76;33.84
75617;BME280;64200;55.426;37.758;2023-04-09T18:30:56;100203.06;;;11.60;34.69
75617;BME280;64200;55.426;37.758;2023-04-09T18:36:00;100207.84;;;11.51;34.58
75617;BME280;64200;55.426;37.758;2023-04-09T18:41:01;100200.25;;;11.51;34.41
75617;BME280;64200;55.426;37.758;2023-04-09T18:46:02;100203.84;;;11.52;34.32
75617;BME280;64200;55.426;37.758;2023-04-09T18:51:03;100198.41;;;11.57;33.70
75617;BME280;64200;55.426;37.758;2023-04-09T18:56:04;100196.69;;;11.51;33.57
75617;BME280;64200;55.426;37.758;2023-04-09T19:01:11;100193.06;;;11.41;34.40
75617;BME280;64200;55.426;37.758;2023-04-09T19:06:16;100193.69;;;11.45;33.76
75617;BME280;64200;55.426;37.758;2023-04-09T19:11:17;100202.03;;;11.36;33.83
75617;BME280;64200;55.426;37.758;2023-04-09T19:16:18;100209.78;;;11.32;33.92
75617;BME280;64200;55.426;37.758;2023-04-09T19:21:19;100199.53;;;11.29;34.67
75617;BME280;64200;55.426;37.758;2023-04-09T19:26:20;100198.63;;;11.10;35.12
75617;BME280;64200;55.426;37.758;2023-04-09T19:31:21;100201.25;;;10.82;35.49
75617;BME280;64200;55.426;37.758;2023-04-09T19:36:22;100192.97;;;10.69;35.35
75617;BME280;64200;55.426;37.758;2023-04-09T19:41:23;100203.97;;;10.72;35.14
75617;BME280;64200;55.426;37.758;2023-04-09T19:46:23;100204.56;;;10.67;35.21
75617;BME280;64200;55.426;37.758;2023-04-09T19:51:24;100214.22;;;10.53;35.69
75617;BME280;64200;55.426;37.758;2023-04-09T19:56:27;100200.50;;;10.46;35.58
75617;BME280;64200;55.426;37.758;2023-04-09T20:01:27;100192.97;;;10.34;35.95
75617;BME280;64200;55.426;37.758;2023-04-09T20:06:28;100207.78;;;10.31;36.38
75617;BME280;64200;55.426;37.758;2023-04-09T20:11:29;100199.53;;;10.27;36.29
75617;BME280;64200;55.426;37.758;2023-04-09T20:16:30;100195.69;;;10.12;36.56
75617;BME280;64200;55.426;37.758;2023-04-09T20:21:31;100204.56;;;10.19;36.65
75617;BME280;64200;55.426;37.758;2023-04-09T20:26:31;100208.50;;;10.09;36.38
75617;BME280;64200;55.426;37.758;2023-04-09T20:31:32;100211.41;;;10.18;36.13
75617;BME280;64200;55.426;37.758;2023-04-09T20:36:34;100209.47;;;10.15;36.62
75617;BME280;64200;55.426;37.758;2023-04-09T20:41:34;100208.03;;;10.11;36.63
75617;BME280;64200;55.426;37.758;2023-04-09T20:46:35;100215.78;;;10.07;36.52
75617;BME280;64200;55.426;37.758;2023-04-09T20:51:35;100223.69;;;10.08;36.00
75617;BME280;64200;55.426;37.758;2023-04-09T20:56:36;100217.22;;;9.98;36.32
75617;BME280;64200;55.426;37.758;2023-04-09T21:01:37;100212.53;;;9.95;36.69
75617;BME280;64200;55.426;37.758;2023-04-09T21:06:37;100220.47;;;9.84;36.90
75617;BME280;64200;55.426;37.758;2023-04-09T21:11:39;100214.78;;;9.75;37.06
75617;BME280;64200;55.426;37.758;2023-04-09T21:16:40;100220.59;;;9.67;37.25
75617;BME280;64200;55.426;37.758;2023-04-09T21:21:40;100219.56;;;9.48;37.95
75617;BME280;64200;55.426;37.758;2023-04-09T21:26:41;100224.38;;;9.48;37.36
75617;BME280;64200;55.426;37.758;2023-04-09T21:31:41;100214.66;;;9.40;37.53
75617;BME280;64200;55.426;37.758;2023-04-09T21:36:42;100206.00;;;9.51;37.41
75617;BME280;64200;55.426;37.758;2023-04-09T21:41:44;100210.56;;;9.57;37.27
75617;BME280;64200;55.426;37.758;2023-04-09T21:46:45;100212.22;;;9.55;37.29
75617;BME280;64200;55.426;37.758;2023-04-09T21:51:45;100199.28;;;9.35;37.37
75617;BME280;64200;55.426;37.758;2023-04-09T21:56:46;100209.66;;;9.35;37.63
75617;BME280;64200;55.426;37.758;2023-04-09T22:01:46;100210.53;;;9.19;37.99
75617;BME280;64200;55.426;37.758;2023-04-09T22:06:47;100210.63;;;9.15;38.16
75617;BME280;64200;55.426;37.758;2023-04-09T22:11:47;100225.44;;;9.25;37.94
75617;BME280;64200;55.426;37.758;2023-04-09T22:16:48;100215.84;;;9.13;38.03
75617;BME280;64200;55.426;37.758;2023-04-09T22:21:48;100207.69;;;8.93;38.33
75617;BME280;64200;55.426;37.758;2023-04-09T22:26:49;100218.25;;;8.98;38.75
75617;BME280;64200;55.426;37.758;2023-04-09T22:31:51;100216.72;;;9.10;38.59
75617;BME280;64200;55.426;37.758;2023-04-09T22:36:51;100211.50;;;8.99;38.67
75617;BME280;64200;55.426;37.758;2023-04-09T22:41:52;100221.28;;;9.04;38.61
75617;BME280;64200;55.426;37.758;2023-04-09T22:46:53;100216.59;;;9.01;38.85
75617;BME280;64200;55.426;37.758;2023-04-09T22:51:55;100213.69;;;8.91;38.88
75617;BME280;64200;55.426;37.758;2023-04-09T22:56:56;100203.22;;;8.95;38.97
75617;BME280;64200;55.426;37.758;2023-04-09T23:01:57;100208.03;;;8.95;38.46
75617;BME280;64200;55.426;37.758;2023-04-09T23:06:57;100207.88;;;8.86;38.80
75617;BME280;64200;55.426;37.758;2023-04-09T23:11:59;100204.19;;;8.76;39.07
75617;BME280;64200;55.426;37.758;2023-04-09T23:17:00;100198.81;;;8.69;39.30
75617;BME280;64200;55.426;37.758;2023-04-09T23:22:01;100205.81;;;8.60;39.47
75617;BME280;64200;55.426;37.758;2023-04-09T23:27:01;100205.75;;;8.48;39.75
75617;BME280;64200;55.426;37.758;2023-04-09T23:32:02;100201.25;;;8.21;40.73
75617;BME280;64200;55.426;37.758;2023-04-09T23:37:03;100196.13;;;8.19;40.26
75617;BME280;64200;55.426;37.758;2023-04-09T23:42:03;100199.66;;;8.20;40.11
75617;BME280;64200;55.426;37.758;2023-04-09T23:47:04;100193.94;;;8.27;40.04
75617;BME280;64200;55.426;37.758;2023-04-09T23:52:06;100197.75;;;8.33;40.71
75617;BME280;64200;55.426;37.758;2023-04-09T23:57:06;100193.31;;;8.36;40.02
